Time;durP1;ratioP1;P1;durP2;ratioP2;P2;SDS_P1;SDS_P2;PMS_P1;PMS_P2;Temp;Humidity;BMP_temperature;BMP_pressure;BME280_temperature;BME280_humidity;BME280_pressure;Samples;Min_cycle;Max_cycle;Signal;HPM_P1;HPM_P2
2022/07/12 00:02:20;;;;;;;14.43;10.57;;;;;;;;;;5046780;28;20532;-70
2022/07/12 00:04:46;;;;;;;15.68;10.25;;;;;;;;;;5036637;28;20478;-71
2022/07/12 00:07:12;;;;;;;12.68;8.73;;;;;;;;;;5040260;28;20041;-71
2022/07/12 00:09:39;;;;;;;10.98;7.75;;;;;;;;;;5048204;28;20028;-70
2022/07/12 00:12:05;;;;;;;12.82;7.70;;;;;;;;;;5040431;28;20090;-70
2022/07/12 00:14:31;;;;;;;11.07;7.45;;;;;;;;;;5048062;28;20025;-70
2022/07/12 00:16:57;;;;;;;12.25;7.70;;;;;;;;;;5039255;28;20065;-70
2022/07/12 00:19:23;;;;;;;9.30;6.63;;;;;;;;;;5044917;28;20045;-69
2022/07/12 00:21:49;;;;;;;8.20;6.28;;;;;;;;;;5041229;28;20044;-72
2022/07/12 00:24:15;;;;;;;10.60;6.53;;;;;;;;;;5048610;28;20029;-71
2022/07/12 00:26:41;;;;;;;7.55;6.53;;;;;;;;;;5045885;28;20029;-70
2022/07/12 00:29:07;;;;;;;9.32;6.88;;;;;;;;;;5046986;28;20029;-70
2022/07/12 00:31:33;;;;;;;7.32;6.20;;;;;;;;;;5044580;28;20025;-70
2022/07/12 00:34:00;;;;;;;9.60;7.60;;;;;;;;;;5042696;28;20040;-69
2022/07/12 00:36:26;;;;;;;10.30;7.90;;;;;;;;;;5038657;28;20472;-69
2022/07/12 00:38:52;;;;;;;9.63;7.25;;;;;;;;;;5041658;28;20037;-70
2022/07/12 00:41:19;;;;;;;13.80;8.23;;;;;;;;;;5043772;28;20037;-70
2022/07/12 00:43:45;;;;;;;10.65;8.50;;;;;;;;;;5043302;28;20178;-70
2022/07/12 00:46:11;;;;;;;11.95;7.90;;;;;;;;;;5039078;28;20483;-71
2022/07/12 00:48:37;;;;;;;15.13;8.32;;;;;;;;;;5046842;28;20025;-70
2022/07/12 00:51:03;;;;;;;10.38;8.00;;;;;;;;;;5044770;28;20041;-71
2022/07/12 00:53:29;;;;;;;11.57;7.82;;;;;;;;;;5046414;28;20045;-71
2022/07/12 00:55:59;;;;;;;10.80;8.57;;;;;;;;;;5040814;28;20028;-70
2022/07/12 00:58:27;;;;;;;9.52;8.43;;;;;;;;;;5043077;28;20072;-70
2022/07/12 01:00:55;;;;;;;11.57;8.90;;;;;;;;;;5044161;28;20064;-71
2022/07/12 01:03:21;;;;;;;12.15;8.95;;;;;;;;;;5047089;28;20025;-71
2022/07/12 01:05:47;;;;;;;12.93;9.05;;;;;;;;;;5045446;28;20044;-70
2022/07/12 01:08:13;;;;;;;10.80;9.10;;;;;;;;;;5045825;28;20379;-71
2022/07/12 01:10:40;;;;;;;14.95;10.50;;;;;;;;;;5040562;28;20075;-70
2022/07/12 01:13:07;;;;;;;14.48;10.43;;;;;;;;;;5046222;28;20028;-70
2022/07/12 01:15:33;;;;;;;13.13;9.40;;;;;;;;;;5044637;28;20124;-70
2022/07/12 01:18:00;;;;;;;14.30;11.60;;;;;;;;;;5046033;28;20102;-70
2022/07/12 01:20:26;;;;;;;15.85;11.25;;;;;;;;;;5043192;28;20726;-71
2022/07/12 01:22:59;;;;;;;14.45;9.82;;;;;;;;;;5046888;28;20111;-70
2022/07/12 01:25:25;;;;;;;14.60;10.73;;;;;;;;;;5046251;28;20055;-70
2022/07/12 01:27:52;;;;;;;17.83;9.45;;;;;;;;;;5045230;28;20029;-70
2022/07/12 01:30:18;;;;;;;8.40;7.50;;;;;;;;;;5044106;28;20051;-70
2022/07/12 01:32:44;;;;;;;8.88;7.00;;;;;;;;;;5040174;28;20059;-70
2022/07/12 01:35:10;;;;;;;8.85;7.53;;;;;;;;;;5037356;28;20033;-70
2022/07/12 01:37:37;;;;;;;10.23;7.95;;;;;;;;;;5046758;28;20559;-70
2022/07/12 01:40:08;;;;;;;14.25;9.60;;;;;;;;;;5044711;28;20953;-71
2022/07/12 01:42:36;;;;;;;14.00;9.70;;;;;;;;;;5042343;28;20025;-70
2022/07/12 01:45:02;;;;;;;11.43;8.00;;;;;;;;;;5042723;28;20074;-70
2022/07/12 01:47:29;;;;;;;12.13;9.55;;;;;;;;;;5044795;28;20021;-71
2022/07/12 01:49:55;;;;;;;13.50;10.50;;;;;;;;;;5045396;28;20032;-70
2022/07/12 01:52:21;;;;;;;16.17;10.10;;;;;;;;;;5038880;28;20060;-70
2022/07/12 01:54:47;;;;;;;11.55;9.77;;;;;;;;;;5045181;28;20040;-70
2022/07/12 01:57:14;;;;;;;14.68;10.55;;;;;;;;;;5045375;28;20067;-70
2022/07/12 01:59:40;;;;;;;16.40;11.10;;;;;;;;;;5047273;28;20052;-70
2022/07/12 02:02:07;;;;;;;15.57;11.80;;;;;;;;;;5045323;28;20831;-72
2022/07/12 02:04:33;;;;;;;14.50;11.88;;;;;;;;;;5043838;28;20029;-71
2022/07/12 02:07:00;;;;;;;17.35;11.60;;;;;;;;;;5043490;28;20110;-70
2022/07/12 02:09:26;;;;;;;15.55;12.32;;;;;;;;;;5038275;28;20059;-70
2022/07/12 02:11:53;;;;;;;20.08;15.55;;;;;;;;;;5040303;28;20049;-71
2022/07/12 02:14:19;;;;;;;18.80;14.52;;;;;;;;;;5047764;28;20028;-70
2022/07/12 02:16:45;;;;;;;19.25;15.18;;;;;;;;;;5043770;28;20051;-70
2022/07/12 02:19:12;;;;;;;21.92;14.07;;;;;;;;;;5044302;28;20091;-70
2022/07/12 02:21:38;;;;;;;17.50;14.25;;;;;;;;;;5038095;28;20147;-70
2022/07/12 02:24:05;;;;;;;14.60;11.63;;;;;;;;;;5043127;28;20464;-70
2022/07/12 02:26:32;;;;;;;14.68;10.85;;;;;;;;;;5044057;28;20033;-70
2022/07/12 02:28:59;;;;;;;16.35;11.65;;;;;;;;;;5038633;28;20895;-70
2022/07/12 02:31:25;;;;;;;14.82;12.27;;;;;;;;;;5040951;28;20028;-70
2022/07/12 02:33:51;;;;;;;16.33;11.77;;;;;;;;;;5043163;28;20040;-71
2022/07/12 02:36:18;;;;;;;15.68;12.57;;;;;;;;;;5041765;28;20032;-71
2022/07/12 02:38:44;;;;;;;20.38;13.65;;;;;;;;;;5042299;28;20251;-71
2022/07/12 02:41:10;;;;;;;17.00;13.02;;;;;;;;;;5041137;28;20124;-71
2022/07/12 02:43:36;;;;;;;19.38;13.45;;;;;;;;;;5037128;28;20057;-71
2022/07/12 02:46:06;;;;;;;21.10;14.10;;;;;;;;;;5041768;28;20033;-70
2022/07/12 02:48:33;;;;;;;17.83;13.88;;;;;;;;;;5037226;28;20132;-70
2022/07/12 02:51:02;;;;;;;23.27;15.48;;;;;;;;;;5040997;28;20021;-70
2022/07/12 02:53:28;;;;;;;20.60;15.95;;;;;;;;;;5039990;28;20083;-69
2022/07/12 02:55:54;;;;;;;23.92;15.48;;;;;;;;;;5042472;28;20061;-70
2022/07/12 02:58:20;;;;;;;26.75;16.83;;;;;;;;;;5046008;28;20091;-70
2022/07/12 03:00:47;;;;;;;26.27;18.25;;;;;;;;;;5043842;28;20435;-70
2022/07/12 03:03:13;;;;;;;23.52;18.05;;;;;;;;;;5045784;28;20454;-70
2022/07/12 03:05:39;;;;;;;26.17;18.25;;;;;;;;;;5018270;28;20041;-70
2022/07/12 03:08:07;;;;;;;25.50;18.77;;;;;;;;;;5041288;28;20065;-69
2022/07/12 03:10:33;;;;;;;25.20;18.25;;;;;;;;;;5042421;28;20109;-70
2022/07/12 03:12:59;;;;;;;21.95;16.65;;;;;;;;;;5044197;28;20060;-71
2022/07/12 03:15:25;;;;;;;24.38;17.98;;;;;;;;;;5042426;28;20045;-69
2022/07/12 03:17:51;;;;;;;23.85;17.83;;;;;;;;;;5045300;28;20094;-70
2022/07/12 03:20:17;;;;;;;25.55;17.67;;;;;;;;;;5041716;28;20545;-69
2022/07/12 03:22:49;;;;;;;28.40;20.10;;;;;;;;;;5041845;28;20028;-69
2022/07/12 03:25:16;;;;;;;25.25;17.85;;;;;;;;;;5042610;28;20505;-70
2022/07/12 03:27:42;;;;;;;20.75;15.82;;;;;;;;;;5044939;28;20520;-70
2022/07/12 03:30:09;;;;;;;21.17;15.57;;;;;;;;;;5041602;28;20033;-71
2022/07/12 03:32:35;;;;;;;21.60;16.45;;;;;;;;;;5042148;28;20033;-70
2022/07/12 03:35:01;;;;;;;22.35;16.00;;;;;;;;;;5034141;28;20029;-70
2022/07/12 03:37:47;;;;;;;21.45;15.10;;;;;;;;;;5042831;28;20033;-70
2022/07/12 03:40:14;;;;;;;21.52;16.20;;;;;;;;;;5041210;28;20056;-70
2022/07/12 03:42:40;;;;;;;19.60;14.85;;;;;;;;;;5042768;28;20072;-70
2022/07/12 03:45:06;;;;;;;19.83;16.38;;;;;;;;;;5041418;28;20029;-69
2022/07/12 03:47:34;;;;;;;20.70;16.15;;;;;;;;;;5043404;28;20048;-69
2022/07/12 03:50:01;;;;;;;24.63;16.45;;;;;;;;;;5040792;28;20033;-70
2022/07/12 03:52:27;;;;;;;19.92;16.30;;;;;;;;;;5032203;28;20048;-69
2022/07/12 03:54:53;;;;;;;20.10;15.65;;;;;;;;;;5039917;28;20123;-70
2022/07/12 03:57:19;;;;;;;17.10;13.90;;;;;;;;;;5042045;28;20511;-69
2022/07/12 03:59:46;;;;;;;18.95;13.95;;;;;;;;;;5038469;28;20044;-69
2022/07/12 04:02:13;;;;;;;17.92;12.88;;;;;;;;;;5042607;28;20078;-70
2022/07/12 04:04:39;;;;;;;14.30;12.80;;;;;;;;;;5039621;28;20025;-69
2022/07/12 04:07:05;;;;;;;15.02;12.90;;;;;;;;;;5041760;28;20056;-69
2022/07/12 04:09:31;;;;;;;14.13;11.35;;;;;;;;;;5032316;28;20036;-69
2022/07/12 04:11:57;;;;;;;14.57;12.63;;;;;;;;;;5042614;28;20128;-69
2022/07/12 04:14:24;;;;;;;15.70;13.05;;;;;;;;;;5036763;28;20136;-70
2022/07/12 04:16:50;;;;;;;13.60;10.68;;;;;;;;;;5042264;28;20036;-69
2022/07/12 04:19:16;;;;;;;14.52;12.27;;;;;;;;;;5042333;28;20108;-69
2022/07/12 04:21:42;;;;;;;20.17;12.95;;;;;;;;;;5042985;28;20566;-70
2022/07/12 04:24:08;;;;;;;12.70;10.88;;;;;;;;;;5044267;28;20025;-71
2022/07/12 04:26:34;;;;;;;18.25;14.07;;;;;;;;;;5042065;28;20033;-71
2022/07/12 04:29:00;;;;;;;20.20;15.05;;;;;;;;;;5047270;28;20033;-69
2022/07/12 04:31:26;;;;;;;16.92;12.73;;;;;;;;;;5041603;28;20040;-69
2022/07/12 04:33:52;;;;;;;10.98;9.65;;;;;;;;;;5045876;28;20025;-71
2022/07/12 04:36:18;;;;;;;9.02;7.20;;;;;;;;;;5045979;28;20036;-70
2022/07/12 04:38:44;;;;;;;7.07;4.53;;;;;;;;;;5047226;28;20032;-68
2022/07/12 04:41:10;;;;;;;3.92;2.75;;;;;;;;;;5043299;28;20036;-69
2022/07/12 04:43:36;;;;;;;2.90;2.60;;;;;;;;;;5044922;28;20537;-68
2022/07/12 04:46:06;;;;;;;4.53;2.55;;;;;;;;;;5045903;28;20835;-68
2022/07/12 04:48:32;;;;;;;4.93;2.95;;;;;;;;;;5047503;28;20021;-69
2022/07/12 04:50:58;;;;;;;2.90;2.33;;;;;;;;;;5044328;28;20104;-69
2022/07/12 04:53:24;;;;;;;4.45;2.60;;;;;;;;;;5039488;28;20037;-70
2022/07/12 04:55:50;;;;;;;7.80;3.65;;;;;;;;;;5043222;28;20048;-71
2022/07/12 04:58:16;;;;;;;5.97;3.50;;;;;;;;;;5047841;28;20021;-70
2022/07/12 05:00:42;;;;;;;4.85;3.45;;;;;;;;;;5041425;28;20052;-69
2022/07/12 05:03:08;;;;;;;5.07;4.05;;;;;;;;;;5047556;28;20041;-70
2022/07/12 05:05:34;;;;;;;3.88;3.10;;;;;;;;;;5043618;28;20025;-70
2022/07/12 05:08:00;;;;;;;7.78;4.10;;;;;;;;;;5047822;28;20094;-70
2022/07/12 05:10:26;;;;;;;5.70;4.43;;;;;;;;;;5043858;28;20506;-70
2022/07/12 05:12:52;;;;;;;8.43;5.57;;;;;;;;;;5045957;28;20025;-70
2022/07/12 05:15:18;;;;;;;8.27;5.78;;;;;;;;;;5046340;28;20071;-70
2022/07/12 05:17:45;;;;;;;8.63;6.68;;;;;;;;;;5046697;28;20490;-70
2022/07/12 05:20:11;;;;;;;10.05;7.55;;;;;;;;;;5045167;28;20021;-70
2022/07/12 05:22:37;;;;;;;7.80;6.93;;;;;;;;;;5047644;28;20037;-70
2022/07/12 05:25:04;;;;;;;7.72;6.93;;;;;;;;;;5044029;28;20025;-70
2022/07/12 05:27:31;;;;;;;10.68;7.40;;;;;;;;;;5044484;28;20044;-70
2022/07/12 05:29:57;;;;;;;10.65;7.03;;;;;;;;;;5045801;28;20037;-70
2022/07/12 05:32:23;;;;;;;11.80;7.50;;;;;;;;;;5035759;28;20420;-71
2022/07/12 05:34:49;;;;;;;8.85;7.05;;;;;;;;;;5038370;28;20159;-72
2022/07/12 05:37:16;;;;;;;11.07;7.80;;;;;;;;;;5034518;28;20521;-71
2022/07/12 05:39:42;;;;;;;11.07;7.53;;;;;;;;;;5043282;28;20466;-71
2022/07/12 05:42:09;;;;;;;11.25;7.50;;;;;;;;;;5043750;28;20044;-72
2022/07/12 05:44:35;;;;;;;12.88;8.23;;;;;;;;;;5034466;28;20026;-73
2022/07/12 05:47:01;;;;;;;10.00;8.20;;;;;;;;;;5044370;28;20509;-71
2022/07/12 05:49:27;;;;;;;10.20;7.35;;;;;;;;;;5044182;28;20127;-72
2022/07/12 05:54:38;;;;;;;12.43;9.30;;;;;;;;;;5044484;28;20410;-71
2022/07/12 05:57:04;;;;;;;13.63;8.50;;;;;;;;;;5041638;28;20033;-72
2022/07/12 05:59:31;;;;;;;12.40;8.68;;;;;;;;;;5044733;28;20126;-71
2022/07/12 06:01:57;;;;;;;9.55;8.57;;;;;;;;;;5038734;28;20490;-72
2022/07/12 06:04:23;;;;;;;9.60;8.52;;;;;;;;;;5045000;28;20032;-74
2022/07/12 06:06:49;;;;;;;11.38;9.15;;;;;;;;;;5043529;28;20095;-74
2022/07/12 06:09:15;;;;;;;8.50;7.68;;;;;;;;;;5041565;28;20033;-75
2022/07/12 06:11:41;;;;;;;10.65;8.57;;;;;;;;;;5023278;28;20106;-74
2022/07/12 06:14:07;;;;;;;8.02;7.10;;;;;;;;;;5038466;28;20121;-74
2022/07/12 06:16:33;;;;;;;11.23;6.90;;;;;;;;;;5040396;28;20044;-74
2022/07/12 06:18:59;;;;;;;9.82;7.60;;;;;;;;;;5043192;28;20037;-75
2022/07/12 06:21:25;;;;;;;7.72;7.03;;;;;;;;;;5061647;28;20037;-74
2022/07/12 06:23:52;;;;;;;9.10;7.15;;;;;;;;;;5039858;28;20117;-77
2022/07/12 06:26:18;;;;;;;9.70;6.78;;;;;;;;;;5046305;28;20041;-75
2022/07/12 06:28:44;;;;;;;8.52;7.00;;;;;;;;;;5037117;28;20060;-76
2022/07/12 06:31:10;;;;;;;8.05;7.25;;;;;;;;;;5045144;28;20033;-75
2022/07/12 06:33:36;;;;;;;8.05;6.95;;;;;;;;;;5043058;28;20045;-75
2022/07/12 06:36:02;;;;;;;9.27;7.15;;;;;;;;;;5026138;28;20481;-77
2022/07/12 06:38:28;;;;;;;9.45;7.15;;;;;;;;;;5045123;28;20025;-78
2022/07/12 06:40:55;;;;;;;8.15;6.95;;;;;;;;;;5039697;28;20033;-77
2022/07/12 06:43:21;;;;;;;7.72;7.03;;;;;;;;;;5042455;28;20020;-76
2022/07/12 06:45:47;;;;;;;7.68;6.88;;;;;;;;;;5042074;28;20540;-77
2022/07/12 06:48:13;;;;;;;12.00;7.03;;;;;;;;;;5043331;28;20033;-78
2022/07/12 06:50:39;;;;;;;8.77;6.63;;;;;;;;;;5045557;28;20055;-76
2022/07/12 06:53:05;;;;;;;7.47;6.30;;;;;;;;;;5042136;28;20056;-76
2022/07/12 06:55:31;;;;;;;10.80;6.50;;;;;;;;;;5043666;28;20099;-78
2022/07/12 06:57:57;;;;;;;7.30;6.57;;;;;;;;;;5044236;28;20064;-76
2022/07/12 07:00:23;;;;;;;10.65;6.75;;;;;;;;;;5040762;28;20731;-78
2022/07/12 07:02:49;;;;;;;10.10;7.28;;;;;;;;;;5034570;28;20478;-77
2022/07/12 07:05:17;;;;;;;7.30;6.20;;;;;;;;;;5045655;28;20083;-76
2022/07/12 07:07:43;;;;;;;10.32;6.40;;;;;;;;;;5036733;28;20052;-77
2022/07/12 07:10:09;;;;;;;7.47;5.97;;;;;;;;;;5044726;28;20505;-76
2022/07/12 07:12:35;;;;;;;11.65;6.80;;;;;;;;;;5043726;28;20018;-78
2022/07/12 07:15:01;;;;;;;7.35;5.95;;;;;;;;;;5042044;28;20501;-79
2022/07/12 07:17:27;;;;;;;9.43;6.40;;;;;;;;;;5033804;28;20033;-77
2022/07/12 07:19:53;;;;;;;10.60;6.68;;;;;;;;;;5044329;28;20107;-77
2022/07/12 07:22:20;;;;;;;6.90;6.22;;;;;;;;;;5041349;28;20287;-77
2022/07/12 07:24:46;;;;;;;8.75;6.15;;;;;;;;;;5044707;28;20798;-77
2022/07/12 07:27:12;;;;;;;8.73;6.22;;;;;;;;;;5047434;28;20033;-77
2022/07/12 07:32:23;;;;;;;8.98;6.00;;;;;;;;;;5044446;28;20056;-78
2022/07/12 07:34:49;;;;;;;7.00;5.82;;;;;;;;;;5047610;28;20402;-76
2022/07/12 07:37:15;;;;;;;7.63;6.00;;;;;;;;;;5050006;28;20031;-77
2022/07/12 07:39:41;;;;;;;8.50;5.68;;;;;;;;;;5048464;28;20116;-77
2022/07/12 07:42:07;;;;;;;9.80;6.07;;;;;;;;;;5054098;28;20041;-77
2022/07/12 07:44:33;;;;;;;9.43;5.78;;;;;;;;;;5046934;28;20063;-77
2022/07/12 07:46:59;;;;;;;8.38;5.60;;;;;;;;;;5048201;28;20029;-77
2022/07/12 07:49:25;;;;;;;8.18;5.68;;;;;;;;;;5041384;28;20040;-78
2022/07/12 07:51:51;;;;;;;6.38;5.13;;;;;;;;;;5039573;28;20033;-77
2022/07/12 07:54:17;;;;;;;9.23;5.20;;;;;;;;;;5048026;28;20045;-78
2022/07/12 07:56:43;;;;;;;12.32;5.10;;;;;;;;;;5049879;28;20024;-77
2022/07/12 07:59:09;;;;;;;7.65;5.00;;;;;;;;;;5036115;28;20418;-78
2022/07/12 08:01:45;;;;;;;8.20;4.97;;;;;;;;;;5045899;28;20029;-77
2022/07/12 08:04:15;;;;;;;7.88;4.88;;;;;;;;;;5050249;28;20033;-77
2022/07/12 08:06:42;;;;;;;6.88;4.43;;;;;;;;;;5033238;28;20040;-78
2022/07/12 08:09:08;;;;;;;9.07;5.70;;;;;;;;;;5040439;28;20025;-77
2022/07/12 08:11:35;;;;;;;6.82;4.93;;;;;;;;;;5056409;28;20032;-77
2022/07/12 08:14:01;;;;;;;8.48;5.07;;;;;;;;;;5037061;28;20035;-77
2022/07/12 08:16:27;;;;;;;6.85;4.55;;;;;;;;;;5051035;28;20450;-77
2022/07/12 08:18:53;;;;;;;5.47;4.45;;;;;;;;;;5035261;28;20029;-76
2022/07/12 08:21:19;;;;;;;6.40;4.57;;;;;;;;;;5051127;28;20025;-77
2022/07/12 08:23:45;;;;;;;5.88;4.82;;;;;;;;;;5037292;28;20037;-78
2022/07/12 08:26:11;;;;;;;6.90;5.30;;;;;;;;;;5044291;28;20470;-77
2022/07/12 08:28:37;;;;;;;9.40;5.10;;;;;;;;;;5031283;28;20503;-77
2022/07/12 08:31:03;;;;;;;5.32;4.50;;;;;;;;;;5032747;28;20036;-77
2022/07/12 08:33:30;;;;;;;8.80;4.63;;;;;;;;;;5047606;28;20119;-77
2022/07/12 08:35:56;;;;;;;7.45;4.78;;;;;;;;;;5052209;28;20043;-77
2022/07/12 08:38:22;;;;;;;7.68;4.60;;;;;;;;;;5051250;28;20063;-76
2022/07/12 08:40:48;;;;;;;9.63;4.32;;;;;;;;;;5051802;28;20490;-77
2022/07/12 08:43:14;;;;;;;5.20;3.80;;;;;;;;;;5044042;28;20086;-77
2022/07/12 08:45:43;;;;;;;6.88;3.33;;;;;;;;;;5030765;28;20120;-77
2022/07/12 08:48:09;;;;;;;9.20;4.35;;;;;;;;;;5048213;28;20100;-78
2022/07/12 08:50:36;;;;;;;5.28;3.42;;;;;;;;;;5050430;28;20071;-76
2022/07/12 08:53:02;;;;;;;4.72;3.60;;;;;;;;;;5038930;28;20068;-77
2022/07/12 08:55:37;;;;;;;5.45;3.50;;;;;;;;;;5032955;28;20565;-78
2022/07/12 08:58:07;;;;;;;4.57;3.22;;;;;;;;;;5052172;28;20035;-78
2022/07/12 09:00:33;;;;;;;8.50;3.65;;;;;;;;;;5036972;28;20112;-77
2022/07/12 09:03:01;;;;;;;6.65;3.53;;;;;;;;;;5052351;28;20048;-75
2022/07/12 09:05:28;;;;;;;5.65;3.25;;;;;;;;;;5052324;28;20431;-77
2022/07/12 09:08:02;;;;;;;6.75;3.45;;;;;;;;;;5044087;28;20028;-76
2022/07/12 09:10:28;;;;;;;7.18;4.22;;;;;;;;;;5050053;28;20021;-77
2022/07/12 09:12:54;;;;;;;4.80;2.42;;;;;;;;;;5049859;28;20040;-77
2022/07/12 09:15:21;;;;;;;8.85;2.92;;;;;;;;;;5044993;28;20029;-77
2022/07/12 09:17:57;;;;;;;3.55;2.30;;;;;;;;;;5050041;28;20123;-77
2022/07/12 09:20:27;;;;;;;8.38;3.15;;;;;;;;;;5049640;28;20112;-78
2022/07/12 09:23:19;;;;;;;3.40;3.10;;;;;;;;;;5050297;28;20454;-76
2022/07/12 09:25:46;;;;;;;5.97;3.85;;;;;;;;;;5044676;28;20075;-76
2022/07/12 09:28:12;;;;;;;4.70;3.22;;;;;;;;;;5049741;28;20482;-78
2022/07/12 09:30:48;;;;;;;9.20;3.00;;;;;;;;;;5050080;28;20040;-78
2022/07/12 09:36:17;;;;;;;10.55;3.05;;;;;;;;;;5046984;28;20098;-77
2022/07/12 09:38:56;;;;;;;7.72;3.30;;;;;;;;;;5031225;28;20041;-77
2022/07/12 09:41:22;;;;;;;5.15;2.90;;;;;;;;;;5049467;28;20466;-78
2022/07/12 09:43:48;;;;;;;6.63;2.90;;;;;;;;;;5045548;28;20055;-79
2022/07/12 09:46:15;;;;;;;4.28;3.88;;;;;;;;;;5030590;28;20021;-78
2022/07/12 09:48:41;;;;;;;5.40;3.08;;;;;;;;;;5040354;28;20545;-80
2022/07/12 09:51:09;;;;;;;9.98;3.67;;;;;;;;;;5050089;28;20478;-77
2022/07/12 09:53:55;;;;;;;10.32;3.40;;;;;;;;;;5050383;28;20052;-77
2022/07/12 09:56:22;;;;;;;5.93;4.10;;;;;;;;;;5049985;28;20067;-78
2022/07/12 09:58:52;;;;;;;5.65;3.70;;;;;;;;;;5044030;28;20030;-78
2022/07/12 10:01:18;;;;;;;7.22;3.83;;;;;;;;;;5043067;28;20036;-78
2022/07/12 10:03:45;;;;;;;6.43;3.45;;;;;;;;;;5051269;28;20505;-78
2022/07/12 10:06:12;;;;;;;9.35;3.95;;;;;;;;;;5044135;28;20616;-78
2022/07/12 10:08:38;;;;;;;7.88;3.83;;;;;;;;;;5035011;28;20120;-78
2022/07/12 10:11:05;;;;;;;6.63;4.07;;;;;;;;;;5044534;28;20460;-78
2022/07/12 10:13:32;;;;;;;7.22;3.97;;;;;;;;;;5042141;28;20032;-77
2022/07/12 10:16:00;;;;;;;4.43;3.25;;;;;;;;;;5048353;28;20037;-79
2022/07/12 10:18:27;;;;;;;6.65;2.72;;;;;;;;;;5048106;28;20033;-78
2022/07/12 10:20:53;;;;;;;9.05;3.75;;;;;;;;;;5042638;28;20029;-77
2022/07/12 10:23:37;;;;;;;4.72;3.70;;;;;;;;;;5029623;28;20037;-77
2022/07/12 10:26:30;;;;;;;7.82;3.13;;;;;;;;;;5044139;28;20036;-79
2022/07/12 10:29:04;;;;;;;7.97;4.10;;;;;;;;;;5044647;28;20037;-78
2022/07/12 10:31:33;;;;;;;5.93;3.65;;;;;;;;;;5050688;28;20447;-77
2022/07/12 10:34:08;;;;;;;7.07;3.50;;;;;;;;;;5049461;28;20178;-78
2022/07/12 10:36:54;;;;;;;6.07;3.33;;;;;;;;;;5045682;28;20099;-78
2022/07/12 10:39:21;;;;;;;4.97;3.78;;;;;;;;;;5049160;28;20430;-78
2022/07/12 10:42:05;;;;;;;9.80;3.67;;;;;;;;;;5049429;28;20079;-78
2022/07/12 10:44:35;;;;;;;5.05;3.25;;;;;;;;;;5048670;28;20031;-78
2022/07/12 10:47:01;;;;;;;9.50;3.75;;;;;;;;;;5050366;28;20025;-78
2022/07/12 10:49:29;;;;;;;5.03;3.70;;;;;;;;;;5032140;28;20053;-77
2022/07/12 10:52:10;;;;;;;5.47;3.70;;;;;;;;;;5045486;28;20021;-78
2022/07/12 10:54:37;;;;;;;4.75;3.35;;;;;;;;;;5049524;28;20630;-79
2022/07/12 10:57:04;;;;;;;5.55;4.30;;;;;;;;;;5043568;28;20108;-78
2022/07/12 10:59:30;;;;;;;8.48;3.47;;;;;;;;;;5037405;28;20083;-79
2022/07/12 11:01:57;;;;;;;11.40;4.05;;;;;;;;;;5048438;28;20041;-78
2022/07/12 11:04:23;;;;;;;6.43;3.85;;;;;;;;;;5050113;28;20061;-78
2022/07/12 11:06:49;;;;;;;5.40;3.35;;;;;;;;;;5051005;28;20029;-79
2022/07/12 11:09:18;;;;;;;7.38;4.20;;;;;;;;;;5047454;28;20032;-79
2022/07/12 11:11:45;;;;;;;7.05;4.00;;;;;;;;;;5049664;28;20029;-78
2022/07/12 11:14:12;;;;;;;4.97;3.88;;;;;;;;;;5050738;28;20044;-78
2022/07/12 11:16:45;;;;;;;4.47;3.30;;;;;;;;;;5049118;28;20064;-77
2022/07/12 11:19:11;;;;;;;6.93;2.83;;;;;;;;;;5034141;28;20556;-77
2022/07/12 11:21:37;;;;;;;3.33;2.40;;;;;;;;;;5035452;28;20036;-78
2022/07/12 11:24:15;;;;;;;4.38;3.22;;;;;;;;;;5039153;28;20033;-79
2022/07/12 11:26:41;;;;;;;4.30;2.95;;;;;;;;;;5046221;28;20036;-79
2022/07/12 11:29:08;;;;;;;5.35;2.92;;;;;;;;;;5044349;28;20029;-79
2022/07/12 11:31:34;;;;;;;6.10;3.33;;;;;;;;;;5031139;28;20053;-79
2022/07/12 11:34:00;;;;;;;4.95;3.50;;;;;;;;;;5034371;28;20060;-77
2022/07/12 11:36:45;;;;;;;4.72;3.22;;;;;;;;;;5045982;28;20036;-79
2022/07/12 11:39:11;;;;;;;5.65;3.22;;;;;;;;;;5051228;28;20036;-77
2022/07/12 11:41:37;;;;;;;4.85;3.38;;;;;;;;;;5035506;28;20566;-77
2022/07/12 11:44:04;;;;;;;8.98;3.50;;;;;;;;;;5039165;28;20029;-77
2022/07/12 11:46:30;;;;;;;11.35;3.17;;;;;;;;;;5045077;28;20535;-78
2022/07/12 11:48:56;;;;;;;5.85;2.70;;;;;;;;;;5033176;28;20049;-78
2022/07/12 11:51:27;;;;;;;2.47;1.58;;;;;;;;;;5036843;28;20102;-78
2022/07/12 11:53:53;;;;;;;8.50;2.70;;;;;;;;;;5050514;28;20044;-78
2022/07/12 11:56:29;;;;;;;5.82;3.28;;;;;;;;;;5051991;28;20120;-78
2022/07/12 11:58:58;;;;;;;10.15;2.95;;;;;;;;;;5054129;28;20037;-77
2022/07/12 12:01:25;;;;;;;8.90;3.13;;;;;;;;;;5054716;28;20037;-79
2022/07/12 12:03:52;;;;;;;3.58;2.75;;;;;;;;;;5055144;28;20108;-78
2022/07/12 12:06:18;;;;;;;4.85;2.80;;;;;;;;;;5053133;28;20441;-77
2022/07/12 12:08:45;;;;;;;5.80;2.88;;;;;;;;;;5038504;28;20030;-78
2022/07/12 12:11:11;;;;;;;3.80;2.88;;;;;;;;;;5052508;28;20051;-78
2022/07/12 12:13:37;;;;;;;5.07;3.78;;;;;;;;;;5068678;28;20031;-78
2022/07/12 12:16:05;;;;;;;5.45;4.15;;;;;;;;;;5049823;28;20040;-77
2022/07/12 12:18:32;;;;;;;7.80;3.55;;;;;;;;;;5032372;28;20510;-78
2022/07/12 12:21:02;;;;;;;5.78;3.03;;;;;;;;;;5034257;28;20041;-79
2022/07/12 12:23:29;;;;;;;4.50;2.10;;;;;;;;;;5042174;28;20089;-77
2022/07/12 12:26:10;;;;;;;5.18;2.83;;;;;;;;;;5048152;28;20045;-77
2022/07/12 12:28:43;;;;;;;11.13;4.00;;;;;;;;;;5053089;28;20035;-78
2022/07/12 12:31:10;;;;;;;5.90;4.57;;;;;;;;;;5054069;28;20028;-78
2022/07/12 12:33:37;;;;;;;9.95;5.53;;;;;;;;;;5049408;28;20067;-79
2022/07/12 12:36:18;;;;;;;10.20;5.00;;;;;;;;;;5052235;28;20087;-79
2022/07/12 12:38:45;;;;;;;17.10;6.65;;;;;;;;;;5047834;28;20032;-79
2022/07/12 12:41:11;;;;;;;10.73;5.10;;;;;;;;;;5051984;28;20091;-80
2022/07/12 12:43:38;;;;;;;9.93;5.95;;;;;;;;;;5037550;28;20028;-77
2022/07/12 12:46:04;;;;;;;6.38;5.70;;;;;;;;;;5053002;28;20093;-78
2022/07/12 12:48:31;;;;;;;13.98;6.38;;;;;;;;;;5051384;28;20078;-78
2022/07/12 12:51:10;;;;;;;9.43;6.43;;;;;;;;;;5053436;28;20542;-78
2022/07/12 12:53:38;;;;;;;7.27;5.37;;;;;;;;;;5048361;28;20095;-78
2022/07/12 12:56:09;;;;;;;9.85;3.55;;;;;;;;;;5042603;28;20120;-79
2022/07/12 12:58:35;;;;;;;8.25;2.90;;;;;;;;;;5047651;28;20056;-78
2022/07/12 13:01:02;;;;;;;6.25;3.42;;;;;;;;;;5033338;28;20112;-78
2022/07/12 13:03:28;;;;;;;5.88;3.45;;;;;;;;;;5047709;28;20040;-77
2022/07/12 13:05:54;;;;;;;6.38;3.53;;;;;;;;;;5052748;28;20033;-77
2022/07/12 13:08:21;;;;;;;6.07;2.70;;;;;;;;;;5041934;28;20251;-77
2022/07/12 13:10:47;;;;;;;6.80;2.90;;;;;;;;;;5050439;28;20095;-76
2022/07/12 13:13:13;;;;;;;4.57;2.38;;;;;;;;;;5052489;28;20025;-77
2022/07/12 13:15:39;;;;;;;5.45;3.20;;;;;;;;;;5046465;28;20041;-77
2022/07/12 13:18:06;;;;;;;7.53;3.22;;;;;;;;;;5031164;28;20030;-78
2022/07/12 13:20:33;;;;;;;13.93;3.75;;;;;;;;;;5039557;28;20032;-78
2022/07/12 13:22:59;;;;;;;10.55;4.28;;;;;;;;;;5050413;28;20025;-79
2022/07/12 13:25:25;;;;;;;5.43;3.92;;;;;;;;;;5045089;28;20494;-78
2022/07/12 13:27:52;;;;;;;5.57;3.25;;;;;;;;;;5051036;28;20025;-78
2022/07/12 13:30:19;;;;;;;2.92;2.28;;;;;;;;;;5051247;28;20036;-77
2022/07/12 13:32:45;;;;;;;4.68;2.55;;;;;;;;;;5050355;28;20057;-78
2022/07/12 13:35:12;;;;;;;4.03;2.63;;;;;;;;;;5052442;28;20029;-77
2022/07/12 13:37:39;;;;;;;3.40;2.40;;;;;;;;;;5050517;28;20490;-77
2022/07/12 13:40:11;;;;;;;5.03;2.83;;;;;;;;;;5046323;28;20025;-77
2022/07/12 13:42:43;;;;;;;4.28;2.25;;;;;;;;;;5052052;28;20037;-78
2022/07/12 13:45:10;;;;;;;2.58;2.30;;;;;;;;;;5051840;28;20033;-76
2022/07/12 13:47:36;;;;;;;4.35;2.28;;;;;;;;;;5051466;28;20037;-77
2022/07/12 13:50:03;;;;;;;3.85;2.25;;;;;;;;;;5049583;28;20491;-78
2022/07/12 13:52:29;;;;;;;2.35;1.90;;;;;;;;;;5050906;28;20029;-78
2022/07/12 13:54:55;;;;;;;3.95;2.30;;;;;;;;;;5050672;28;20041;-80
2022/07/12 13:57:21;;;;;;;4.22;2.00;;;;;;;;;;5050050;28;20039;-77
2022/07/12 13:59:47;;;;;;;3.58;2.13;;;;;;;;;;5057824;28;20037;-78
2022/07/12 14:02:13;;;;;;;6.82;2.00;;;;;;;;;;5043151;28;20025;-78
2022/07/12 14:04:39;;;;;;;4.30;2.28;;;;;;;;;;5031969;28;20135;-78
2022/07/12 14:07:05;;;;;;;6.47;2.45;;;;;;;;;;5032654;28;20084;-77
2022/07/12 14:09:31;;;;;;;3.05;2.40;;;;;;;;;;5039441;28;20091;-77
2022/07/12 14:11:58;;;;;;;4.93;2.40;;;;;;;;;;5042600;28;20030;-78
2022/07/12 14:17:08;;;;;;;5.45;2.70;;;;;;;;;;5037121;28;20051;-78
2022/07/12 14:19:34;;;;;;;5.55;2.60;;;;;;;;;;5049549;28;20032;-77
2022/07/12 14:22:01;;;;;;;4.20;2.50;;;;;;;;;;5044079;28;20048;-80
2022/07/12 14:24:27;;;;;;;7.82;2.53;;;;;;;;;;5040974;28;20103;-77
2022/07/12 14:26:53;;;;;;;3.10;2.30;;;;;;;;;;5044426;28;20507;-78
2022/07/12 14:29:19;;;;;;;3.63;2.30;;;;;;;;;;5045883;28;20028;-77
2022/07/12 14:31:46;;;;;;;7.00;2.40;;;;;;;;;;5038113;28;20025;-77
2022/07/12 14:34:12;;;;;;;4.00;2.30;;;;;;;;;;5038763;28;20032;-78
2022/07/12 14:36:38;;;;;;;5.93;2.20;;;;;;;;;;5041647;28;20032;-78
2022/07/12 14:39:04;;;;;;;6.13;2.38;;;;;;;;;;5045822;28;20045;-81
2022/07/12 14:41:30;;;;;;;4.28;2.40;;;;;;;;;;5045347;28;20037;-80
2022/07/12 14:43:56;;;;;;;6.53;2.40;;;;;;;;;;5039779;28;20563;-79
2022/07/12 14:46:22;;;;;;;3.95;2.40;;;;;;;;;;5041813;28;20041;-77
2022/07/12 14:48:48;;;;;;;5.75;2.42;;;;;;;;;;5043410;28;20029;-78